ISS120 LIMC-LGSK
Flight info
| Callsign | ISS120 |
|---|---|
| Flight time | 2h 7m |
| Altitude | 37000 |
| Route | OSKOR DCT NEVNI DCT NOBMI DCT ELTAR DCT IDREK DCT ADOSA DCT PETAK DCT PINDO DCT SIGFO |
| Aircraft | A319/M-SDE3FGHIRWY/LB1 |
Departure
| Time | 2026-04-15 09:02 |
|---|---|
| Airport | Milan Malpensa International Airport (LIMC) |
Arrival
| Time | 2026-04-15 11:09 |
|---|---|
| Airport | Skiathos Island National Airport (LGSK) |
| Time | Latitude | Longitude | Altitude | Speed | Heading |
|---|---|---|---|---|---|
| 2026-04-15 08:44 | 45.62848 | 8.71882 | 752 ft | 0 kts | 79° |
| 2026-04-15 08:50 | 45.62848 | 8.71881 | 752 ft | 1 kts | 79° |
| 2026-04-15 08:50 | 45.62846 | 8.71860 | 751 ft | 3 kts | 79° |
| 2026-04-15 08:51 | 45.62842 | 8.71835 | 751 ft | 2 kts | 79° |
| 2026-04-15 08:51 | 45.62837 | 8.71809 | 748 ft | 3 kts | 54° |
| 2026-04-15 08:51 | 45.62824 | 8.71792 | 748 ft | 3 kts | 15° |
| 2026-04-15 08:51 | 45.62805 | 8.71789 | 750 ft | 3 kts | 352° |
| 2026-04-15 08:52 | 45.62795 | 8.71791 | 749 ft | 1 kts | 349° |
| 2026-04-15 08:52 | 45.62793 | 8.71792 | 749 ft | 0 kts | 349° |
| 2026-04-15 08:56 | 45.62797 | 8.71791 | 753 ft | 1 kts | 349° |
| 2026-04-15 08:56 | 45.62806 | 8.71788 | 751 ft | 2 kts | 349° |
| 2026-04-15 08:56 | 45.62819 | 8.71785 | 750 ft | 2 kts | 349° |
| 2026-04-15 08:57 | 45.62837 | 8.71780 | 752 ft | 4 kts | 349° |
| 2026-04-15 08:57 | 45.62870 | 8.71769 | 752 ft | 6 kts | 347° |
| 2026-04-15 08:57 | 45.62919 | 8.71756 | 751 ft | 8 kts | 350° |
| 2026-04-15 08:57 | 45.62967 | 8.71794 | 752 ft | 10 kts | 63° |
| 2026-04-15 08:58 | 45.62984 | 8.71895 | 752 ft | 11 kts | 79° |
| 2026-04-15 08:58 | 45.63102 | 8.72018 | 749 ft | 15 kts | 348° |
| 2026-04-15 08:58 | 45.63207 | 8.71987 | 750 ft | 16 kts | 348° |
| 2026-04-15 08:59 | 45.63323 | 8.71955 | 751 ft | 18 kts | 349° |
| 2026-04-15 08:59 | 45.63448 | 8.71921 | 751 ft | 19 kts | 349° |
| 2026-04-15 08:59 | 45.63580 | 8.71886 | 750 ft | 20 kts | 349° |
| 2026-04-15 08:59 | 45.63722 | 8.71846 | 748 ft | 21 kts | 349° |
| 2026-04-15 09:00 | 45.63871 | 8.71804 | 749 ft | 22 kts | 349° |
| 2026-04-15 09:00 | 45.64028 | 8.71762 | 751 ft | 24 kts | 349° |
| 2026-04-15 09:00 | 45.64193 | 8.71718 | 747 ft | 24 kts | 349° |
| 2026-04-15 09:00 | 45.64360 | 8.71672 | 749 ft | 23 kts | 349° |
| 2026-04-15 09:01 | 45.64480 | 8.71757 | 747 ft | 23 kts | 75° |
| 2026-04-15 09:01 | 45.64419 | 8.71911 | 746 ft | 6 kts | 167° |
| 2026-04-15 09:01 | 45.64419 | 8.71912 | 746 ft | 0 kts | 167° |
| 2026-04-15 09:01 | 45.64356 | 8.71931 | 745 ft | 39 kts | 168° |
| 2026-04-15 09:02 | 45.63835 | 8.72071 | 746 ft | 111 kts | 169° |
| 2026-04-15 09:02 | 45.62886 | 8.72329 | 790 ft | 159 kts | 170° |
| 2026-04-15 09:02 | 45.61824 | 8.72551 | 1424 ft | 154 kts | 181° |
| 2026-04-15 09:02 | 45.60750 | 8.72479 | 2033 ft | 155 kts | 187° |
| 2026-04-15 09:03 | 45.59655 | 8.72335 | 2562 ft | 163 kts | 187° |
| 2026-04-15 09:03 | 45.58447 | 8.72170 | 2878 ft | 186 kts | 187° |
| 2026-04-15 09:03 | 45.57078 | 8.71988 | 3204 ft | 209 kts | 187° |
| 2026-04-15 09:03 | 45.55536 | 8.71790 | 3564 ft | 234 kts | 186° |
| 2026-04-15 09:04 | 45.53880 | 8.71589 | 4335 ft | 242 kts | 186° |
| 2026-04-15 09:04 | 45.52223 | 8.71717 | 5217 ft | 246 kts | 161° |
| 2026-04-15 09:04 | 45.50871 | 8.73178 | 6110 ft | 249 kts | 122° |
| 2026-04-15 09:04 | 45.50420 | 8.75523 | 7035 ft | 251 kts | 86° |
| 2026-04-15 09:05 | 45.50914 | 8.77914 | 7919 ft | 254 kts | 65° |
| 2026-04-15 09:05 | 45.51778 | 8.80117 | 8848 ft | 256 kts | 59° |
| 2026-04-15 09:05 | 45.52721 | 8.82280 | 9738 ft | 259 kts | 58° |
| 2026-04-15 09:05 | 45.53653 | 8.84493 | 10554 ft | 262 kts | 60° |
| 2026-04-15 09:06 | 45.54548 | 8.86773 | 11349 ft | 264 kts | 62° |
| 2026-04-15 09:06 | 45.55404 | 8.89109 | 12144 ft | 268 kts | 63° |
| 2026-04-15 09:06 | 45.56244 | 8.91496 | 12927 ft | 271 kts | 61° |
| 2026-04-15 09:06 | 45.57345 | 8.93691 | 13668 ft | 276 kts | 47° |
| 2026-04-15 09:07 | 45.58844 | 8.95576 | 13928 ft | 299 kts | 38° |
| 2026-04-15 09:07 | 45.60513 | 8.97477 | 14113 ft | 322 kts | 38° |
| 2026-04-15 09:07 | 45.62296 | 8.99599 | 14235 ft | 345 kts | 45° |
| 2026-04-15 09:07 | 45.63757 | 9.02434 | 14365 ft | 366 kts | 63° |
| 2026-04-15 09:08 | 45.64540 | 9.05957 | 14713 ft | 379 kts | 81° |
| 2026-04-15 09:08 | 45.64646 | 9.09752 | 15275 ft | 385 kts | 89° |
| 2026-04-15 09:08 | 45.64665 | 9.13593 | 15878 ft | 389 kts | 89° |
| 2026-04-15 09:08 | 45.64686 | 9.17484 | 16484 ft | 393 kts | 89° |
| 2026-04-15 09:09 | 45.64706 | 9.21406 | 17069 ft | 397 kts | 88° |
| 2026-04-15 09:09 | 45.64728 | 9.25370 | 17652 ft | 401 kts | 88° |
| 2026-04-15 09:09 | 45.64749 | 9.29381 | 18243 ft | 406 kts | 88° |
| 2026-04-15 09:09 | 45.64767 | 9.33375 | 18770 ft | 409 kts | 88° |
| 2026-04-15 09:10 | 45.64783 | 9.37460 | 19291 ft | 412 kts | 88° |
| 2026-04-15 09:10 | 45.64796 | 9.41564 | 19699 ft | 414 kts | 88° |
| 2026-04-15 09:10 | 45.64803 | 9.45694 | 20210 ft | 417 kts | 89° |
| 2026-04-15 09:10 | 45.64811 | 9.49841 | 20704 ft | 419 kts | 89° |
| 2026-04-15 09:11 | 45.64819 | 9.54021 | 21191 ft | 421 kts | 89° |
| 2026-04-15 09:11 | 45.64827 | 9.58221 | 21779 ft | 424 kts | 89° |
| 2026-04-15 09:11 | 45.64836 | 9.62442 | 22246 ft | 426 kts | 89° |
| 2026-04-15 09:11 | 45.64850 | 9.66689 | 22706 ft | 429 kts | 89° |
| 2026-04-15 09:12 | 45.64867 | 9.70904 | 23146 ft | 431 kts | 89° |
| 2026-04-15 09:12 | 45.64883 | 9.75199 | 23580 ft | 434 kts | 89° |
| 2026-04-15 09:12 | 45.64895 | 9.79520 | 23963 ft | 436 kts | 89° |
| 2026-04-15 09:12 | 45.64905 | 9.83864 | 24340 ft | 438 kts | 89° |
| 2026-04-15 09:13 | 45.64915 | 9.88223 | 24714 ft | 440 kts | 88° |
| 2026-04-15 09:13 | 45.64923 | 9.92598 | 25085 ft | 441 kts | 88° |
| 2026-04-15 09:13 | 45.64930 | 9.96989 | 25456 ft | 443 kts | 88° |
| 2026-04-15 09:13 | 45.64932 | 10.01398 | 25815 ft | 445 kts | 88° |
| 2026-04-15 09:14 | 45.64928 | 10.05828 | 26152 ft | 446 kts | 88° |
| 2026-04-15 09:14 | 45.64923 | 10.10209 | 26486 ft | 448 kts | 87° |
| 2026-04-15 09:14 | 45.64918 | 10.14667 | 26797 ft | 450 kts | 87° |
| 2026-04-15 09:14 | 45.64910 | 10.19146 | 27131 ft | 451 kts | 87° |
| 2026-04-15 09:15 | 45.64899 | 10.23642 | 27456 ft | 453 kts | 88° |
| 2026-04-15 09:15 | 45.64887 | 10.28155 | 27748 ft | 456 kts | 88° |
| 2026-04-15 09:15 | 45.64873 | 10.32692 | 28050 ft | 457 kts | 87° |
| 2026-04-15 09:15 | 45.64855 | 10.37250 | 28389 ft | 459 kts | 87° |
| 2026-04-15 09:16 | 45.64833 | 10.41795 | 28852 ft | 457 kts | 87° |
| 2026-04-15 09:16 | 45.64811 | 10.46329 | 29309 ft | 455 kts | 87° |
| 2026-04-15 09:16 | 45.64795 | 10.50791 | 29752 ft | 454 kts | 86° |
| 2026-04-15 09:16 | 45.64779 | 10.55294 | 30222 ft | 453 kts | 86° |
| 2026-04-15 09:17 | 45.64762 | 10.59780 | 30622 ft | 451 kts | 86° |
| 2026-04-15 09:17 | 45.64743 | 10.64258 | 31005 ft | 451 kts | 87° |
| 2026-04-15 09:17 | 45.64718 | 10.68733 | 31344 ft | 451 kts | 87° |
| 2026-04-15 09:17 | 45.64688 | 10.73208 | 31708 ft | 450 kts | 87° |
| 2026-04-15 09:18 | 45.64653 | 10.77678 | 32104 ft | 449 kts | 87° |
| 2026-04-15 09:18 | 45.64617 | 10.82129 | 32489 ft | 447 kts | 86° |
| 2026-04-15 09:18 | 45.64581 | 10.86508 | 32872 ft | 446 kts | 86° |
| 2026-04-15 09:18 | 45.64544 | 10.90934 | 33262 ft | 445 kts | 86° |
| 2026-04-15 09:19 | 45.64508 | 10.95351 | 33663 ft | 444 kts | 86° |
| 2026-04-15 09:19 | 45.64240 | 10.99765 | 34049 ft | 449 kts | 95° |
| 2026-04-15 09:19 | 45.63463 | 11.04102 | 34392 ft | 454 kts | 105° |
| 2026-04-15 09:19 | 45.62180 | 11.08251 | 34694 ft | 459 kts | 115° |
| 2026-04-15 09:20 | 45.60579 | 11.12202 | 35004 ft | 460 kts | 116° |
| 2026-04-15 09:20 | 45.58976 | 11.16144 | 35299 ft | 459 kts | 116° |
| 2026-04-15 09:20 | 45.57374 | 11.20097 | 35592 ft | 459 kts | 116° |
| 2026-04-15 09:20 | 45.55804 | 11.23992 | 35868 ft | 459 kts | 116° |
| 2026-04-15 09:21 | 45.54212 | 11.27936 | 36136 ft | 459 kts | 116° |
| 2026-04-15 09:21 | 45.52614 | 11.31883 | 36395 ft | 459 kts | 116° |
| 2026-04-15 09:21 | 45.51013 | 11.35818 | 36642 ft | 459 kts | 117° |
| 2026-04-15 09:21 | 45.49404 | 11.39754 | 36882 ft | 459 kts | 117° |
| 2026-04-15 09:22 | 45.47793 | 11.43688 | 37095 ft | 460 kts | 117° |
| 2026-04-15 09:22 | 45.46185 | 11.47625 | 37160 ft | 461 kts | 117° |
| 2026-04-15 09:22 | 45.42959 | 11.55506 | 37161 ft | 461 kts | 117° |
| 2026-04-15 09:23 | 45.39741 | 11.63324 | 37164 ft | 461 kts | 117° |
| 2026-04-15 09:23 | 45.36500 | 11.71189 | 37168 ft | 461 kts | 117° |
| 2026-04-15 09:24 | 45.33258 | 11.79043 | 37165 ft | 460 kts | 117° |
| 2026-04-15 09:24 | 45.30012 | 11.86884 | 37168 ft | 460 kts | 118° |
| 2026-04-15 09:25 | 45.26781 | 11.94658 | 37163 ft | 460 kts | 118° |
| 2026-04-15 09:25 | 45.23518 | 12.02483 | 37164 ft | 461 kts | 118° |
| 2026-04-15 09:26 | 45.20250 | 12.10301 | 37171 ft | 461 kts | 118° |
| 2026-04-15 09:26 | 45.16973 | 12.18109 | 37168 ft | 461 kts | 118° |
| 2026-04-15 09:27 | 45.13717 | 12.25856 | 37159 ft | 460 kts | 118° |
| 2026-04-15 09:27 | 45.10440 | 12.33641 | 37158 ft | 460 kts | 119° |
| 2026-04-15 09:28 | 45.07159 | 12.41418 | 37156 ft | 460 kts | 120° |
| 2026-04-15 09:28 | 45.03865 | 12.49183 | 37154 ft | 460 kts | 120° |
| 2026-04-15 09:29 | 45.00573 | 12.56940 | 37159 ft | 460 kts | 120° |
| 2026-04-15 09:29 | 44.97291 | 12.64625 | 37153 ft | 460 kts | 120° |
| 2026-04-15 09:30 | 44.93985 | 12.72360 | 37153 ft | 460 kts | 120° |
| 2026-04-15 09:30 | 44.90680 | 12.80088 | 37153 ft | 460 kts | 120° |
| 2026-04-15 09:31 | 44.87365 | 12.87802 | 37149 ft | 460 kts | 121° |
| 2026-04-15 09:31 | 44.84063 | 12.95462 | 37150 ft | 460 kts | 121° |
| 2026-04-15 09:32 | 44.80740 | 13.03163 | 37152 ft | 460 kts | 121° |
| 2026-04-15 09:32 | 44.77410 | 13.10842 | 37157 ft | 459 kts | 121° |
| 2026-04-15 09:33 | 44.74086 | 13.18502 | 37152 ft | 459 kts | 121° |
| 2026-04-15 09:33 | 44.70760 | 13.26151 | 37151 ft | 459 kts | 121° |
| 2026-04-15 09:34 | 44.67448 | 13.33746 | 37145 ft | 458 kts | 121° |
| 2026-04-15 09:34 | 44.64110 | 13.41371 | 37143 ft | 458 kts | 122° |
| 2026-04-15 09:35 | 44.60766 | 13.48984 | 37144 ft | 458 kts | 122° |
| 2026-04-15 09:35 | 44.57411 | 13.56585 | 37137 ft | 458 kts | 122° |
| 2026-04-15 09:36 | 44.54063 | 13.64186 | 37137 ft | 458 kts | 122° |
| 2026-04-15 09:36 | 44.50734 | 13.71719 | 37136 ft | 458 kts | 123° |
| 2026-04-15 09:37 | 44.47371 | 13.79301 | 37128 ft | 458 kts | 123° |
| 2026-04-15 09:37 | 44.44004 | 13.86887 | 37131 ft | 459 kts | 122° |
| 2026-04-15 09:38 | 44.40631 | 13.94461 | 37132 ft | 459 kts | 122° |
| 2026-04-15 09:38 | 44.37247 | 14.02029 | 37139 ft | 459 kts | 123° |
| 2026-04-15 09:39 | 44.33887 | 14.09519 | 37141 ft | 458 kts | 123° |
| 2026-04-15 09:39 | 44.30505 | 14.17049 | 37144 ft | 457 kts | 123° |
| 2026-04-15 09:40 | 44.27129 | 14.24540 | 37151 ft | 455 kts | 123° |
| 2026-04-15 09:40 | 44.23756 | 14.31986 | 37145 ft | 453 kts | 124° |
| 2026-04-15 09:41 | 44.20414 | 14.39358 | 37145 ft | 452 kts | 123° |
| 2026-04-15 09:41 | 44.17058 | 14.46759 | 37141 ft | 451 kts | 123° |
| 2026-04-15 09:42 | 44.13697 | 14.54139 | 37131 ft | 451 kts | 124° |
| 2026-04-15 09:42 | 44.10336 | 14.61507 | 37131 ft | 451 kts | 123° |
| 2026-04-15 09:43 | 44.07000 | 14.68817 | 37132 ft | 451 kts | 124° |
| 2026-04-15 09:43 | 44.03629 | 14.76167 | 37136 ft | 451 kts | 124° |
| 2026-04-15 09:44 | 44.00256 | 14.83494 | 37141 ft | 449 kts | 123° |
| 2026-04-15 09:44 | 43.96889 | 14.90784 | 37140 ft | 448 kts | 124° |
| 2026-04-15 09:45 | 43.93553 | 14.98012 | 37135 ft | 447 kts | 123° |
| 2026-04-15 09:45 | 43.90192 | 15.05268 | 37127 ft | 447 kts | 123° |
| 2026-04-15 09:46 | 43.86829 | 15.12519 | 37123 ft | 447 kts | 124° |
| 2026-04-15 09:46 | 43.83457 | 15.19748 | 37121 ft | 447 kts | 124° |
| 2026-04-15 09:47 | 43.80076 | 15.26971 | 37109 ft | 447 kts | 124° |
| 2026-04-15 09:47 | 43.76717 | 15.34146 | 37102 ft | 447 kts | 123° |
| 2026-04-15 09:48 | 43.73333 | 15.41374 | 37096 ft | 448 kts | 124° |
| 2026-04-15 09:48 | 43.69936 | 15.48590 | 37097 ft | 448 kts | 124° |
| 2026-04-15 09:49 | 43.66533 | 15.55812 | 37098 ft | 449 kts | 124° |
| 2026-04-15 09:49 | 43.63144 | 15.62981 | 37107 ft | 449 kts | 124° |
| 2026-04-15 09:50 | 43.59734 | 15.70192 | 37099 ft | 449 kts | 124° |
| 2026-04-15 09:50 | 43.56311 | 15.77404 | 37094 ft | 450 kts | 124° |
| 2026-04-15 09:51 | 43.52876 | 15.84611 | 37098 ft | 450 kts | 124° |
| 2026-04-15 09:51 | 43.49441 | 15.91812 | 37100 ft | 450 kts | 124° |
| 2026-04-15 09:52 | 43.46002 | 15.99008 | 37105 ft | 450 kts | 124° |
| 2026-04-15 09:52 | 43.42575 | 16.06151 | 37100 ft | 450 kts | 124° |
| 2026-04-15 09:53 | 43.39119 | 16.13333 | 37100 ft | 451 kts | 124° |
| 2026-04-15 09:53 | 43.35659 | 16.20519 | 37106 ft | 451 kts | 124° |
| 2026-04-15 09:54 | 43.32189 | 16.27702 | 37107 ft | 451 kts | 125° |
| 2026-04-15 09:54 | 43.28711 | 16.34878 | 37118 ft | 451 kts | 125° |
| 2026-04-15 09:55 | 43.25248 | 16.41997 | 37132 ft | 451 kts | 124° |
| 2026-04-15 09:55 | 43.21770 | 16.49160 | 37140 ft | 451 kts | 124° |
| 2026-04-15 09:56 | 43.18291 | 16.56301 | 37147 ft | 450 kts | 125° |
| 2026-04-15 09:57 | 43.13049 | 16.66972 | 37147 ft | 450 kts | 125° |
| 2026-04-15 09:57 | 43.09583 | 16.74038 | 37132 ft | 449 kts | 125° |
| 2026-04-15 09:58 | 43.06102 | 16.81131 | 37119 ft | 449 kts | 124° |
| 2026-04-15 09:58 | 43.02606 | 16.88219 | 37109 ft | 450 kts | 125° |
| 2026-04-15 09:59 | 42.99102 | 16.95300 | 37108 ft | 450 kts | 124° |
| 2026-04-15 09:59 | 42.95597 | 17.02377 | 37111 ft | 450 kts | 125° |
| 2026-04-15 10:00 | 42.92107 | 17.09402 | 37104 ft | 450 kts | 125° |
| 2026-04-15 10:00 | 42.88586 | 17.16475 | 37107 ft | 451 kts | 125° |
| 2026-04-15 10:01 | 42.85060 | 17.23546 | 37113 ft | 452 kts | 125° |
| 2026-04-15 10:01 | 42.81527 | 17.30625 | 37117 ft | 451 kts | 125° |
| 2026-04-15 10:02 | 42.77988 | 17.37683 | 37114 ft | 451 kts | 125° |
| 2026-04-15 10:02 | 42.74461 | 17.44685 | 37105 ft | 451 kts | 125° |
| 2026-04-15 10:03 | 42.70911 | 17.51720 | 37109 ft | 451 kts | 125° |
| 2026-04-15 10:03 | 42.67361 | 17.58751 | 37109 ft | 451 kts | 125° |
| 2026-04-15 10:04 | 42.63811 | 17.65779 | 37116 ft | 451 kts | 126° |
| 2026-04-15 10:04 | 42.60250 | 17.72790 | 37122 ft | 451 kts | 126° |
| 2026-04-15 10:05 | 42.56712 | 17.79737 | 37119 ft | 450 kts | 126° |
| 2026-04-15 10:05 | 42.53154 | 17.86717 | 37121 ft | 450 kts | 126° |
| 2026-04-15 10:06 | 42.49596 | 17.93696 | 37120 ft | 450 kts | 126° |
| 2026-04-15 10:06 | 42.46034 | 18.00655 | 37122 ft | 450 kts | 126° |
| 2026-04-15 10:07 | 42.42460 | 18.07603 | 37122 ft | 449 kts | 126° |
| 2026-04-15 10:07 | 42.38915 | 18.14499 | 37122 ft | 450 kts | 126° |
| 2026-04-15 10:08 | 42.35341 | 18.21435 | 37128 ft | 449 kts | 127° |
| 2026-04-15 10:08 | 42.31763 | 18.28351 | 37125 ft | 449 kts | 127° |
| 2026-04-15 10:09 | 42.28187 | 18.35254 | 37123 ft | 448 kts | 127° |
| 2026-04-15 10:09 | 42.24635 | 18.42102 | 37124 ft | 448 kts | 127° |
| 2026-04-15 10:10 | 42.21058 | 18.48977 | 37121 ft | 448 kts | 127° |
| 2026-04-15 10:10 | 42.17478 | 18.55844 | 37120 ft | 447 kts | 127° |
| 2026-04-15 10:11 | 42.13896 | 18.62683 | 37122 ft | 447 kts | 127° |
| 2026-04-15 10:11 | 42.10335 | 18.69476 | 37122 ft | 447 kts | 127° |
| 2026-04-15 10:12 | 42.06753 | 18.76306 | 37127 ft | 447 kts | 127° |
| 2026-04-15 10:12 | 42.03166 | 18.83134 | 37136 ft | 446 kts | 128° |
| 2026-04-15 10:13 | 41.99578 | 18.89935 | 37127 ft | 445 kts | 128° |
| 2026-04-15 10:13 | 41.95987 | 18.96712 | 37126 ft | 445 kts | 128° |
| 2026-04-15 10:14 | 41.92423 | 19.03442 | 37122 ft | 445 kts | 128° |
| 2026-04-15 10:14 | 41.88832 | 19.10201 | 37121 ft | 445 kts | 128° |
| 2026-04-15 10:15 | 41.85240 | 19.16953 | 37106 ft | 445 kts | 128° |
| 2026-04-15 10:15 | 41.81645 | 19.23700 | 37107 ft | 445 kts | 128° |
| 2026-04-15 10:16 | 41.78014 | 19.30418 | 37106 ft | 444 kts | 131° |
| 2026-04-15 10:16 | 41.73734 | 19.36333 | 37113 ft | 442 kts | 138° |
| 2026-04-15 10:17 | 41.69351 | 19.42032 | 37098 ft | 442 kts | 138° |
| 2026-04-15 10:17 | 41.64942 | 19.47766 | 37083 ft | 442 kts | 138° |
| 2026-04-15 10:18 | 41.60531 | 19.53499 | 37083 ft | 443 kts | 138° |
| 2026-04-15 10:18 | 41.56108 | 19.59229 | 37082 ft | 443 kts | 138° |
| 2026-04-15 10:19 | 41.51706 | 19.64912 | 37087 ft | 443 kts | 138° |
| 2026-04-15 10:19 | 41.47273 | 19.70631 | 37066 ft | 444 kts | 139° |
| 2026-04-15 10:20 | 41.42822 | 19.76350 | 37078 ft | 445 kts | 139° |
| 2026-04-15 10:20 | 41.38366 | 19.82067 | 37076 ft | 445 kts | 139° |
| 2026-04-15 10:21 | 41.33933 | 19.87752 | 37069 ft | 446 kts | 139° |
| 2026-04-15 10:21 | 41.29461 | 19.93474 | 37082 ft | 446 kts | 139° |
| 2026-04-15 10:22 | 41.24985 | 19.99188 | 37072 ft | 446 kts | 139° |
| 2026-04-15 10:22 | 41.20499 | 20.04889 | 37082 ft | 447 kts | 139° |
| 2026-04-15 10:23 | 41.16036 | 20.10559 | 37099 ft | 447 kts | 139° |
| 2026-04-15 10:23 | 41.11544 | 20.16261 | 37082 ft | 447 kts | 139° |
| 2026-04-15 10:24 | 41.07045 | 20.21958 | 37089 ft | 447 kts | 139° |
| 2026-04-15 10:24 | 41.02538 | 20.27655 | 37097 ft | 448 kts | 139° |
| 2026-04-15 10:25 | 40.98061 | 20.33307 | 37092 ft | 448 kts | 139° |
| 2026-04-15 10:25 | 40.93551 | 20.38985 | 37096 ft | 448 kts | 140° |
| 2026-04-15 10:26 | 40.89036 | 20.44658 | 37104 ft | 448 kts | 140° |
| 2026-04-15 10:26 | 40.84509 | 20.50324 | 37108 ft | 449 kts | 140° |
| 2026-04-15 10:27 | 40.80738 | 20.55042 | 37112 ft | 449 kts | 140° |
| 2026-04-15 10:27 | 40.75467 | 20.61633 | 37129 ft | 449 kts | 140° |
| 2026-04-15 10:28 | 40.70931 | 20.67289 | 37124 ft | 449 kts | 140° |
| 2026-04-15 10:28 | 40.66390 | 20.72934 | 37132 ft | 448 kts | 140° |
| 2026-04-15 10:29 | 40.62621 | 20.77612 | 37147 ft | 448 kts | 140° |
| 2026-04-15 10:29 | 40.57347 | 20.84140 | 37136 ft | 448 kts | 141° |
| 2026-04-15 10:30 | 40.53547 | 20.88837 | 37146 ft | 447 kts | 141° |
| 2026-04-15 10:30 | 40.49051 | 20.94415 | 37113 ft | 449 kts | 139° |
| 2026-04-15 10:30 | 40.47006 | 20.97532 | 36841 ft | 453 kts | 130° |
| 2026-04-15 10:31 | 40.45170 | 21.00902 | 36595 ft | 454 kts | 129° |
| 2026-04-15 10:31 | 40.43334 | 21.04265 | 36330 ft | 454 kts | 130° |
| 2026-04-15 10:31 | 40.40891 | 21.08717 | 36004 ft | 454 kts | 130° |
| 2026-04-15 10:31 | 40.39045 | 21.12078 | 35738 ft | 454 kts | 130° |
| 2026-04-15 10:32 | 40.37797 | 21.14348 | 35566 ft | 454 kts | 130° |
| 2026-04-15 10:32 | 40.35945 | 21.17708 | 35318 ft | 455 kts | 130° |
| 2026-04-15 10:32 | 40.34113 | 21.21025 | 35066 ft | 455 kts | 130° |
| 2026-04-15 10:32 | 40.32255 | 21.24391 | 34824 ft | 456 kts | 130° |
| 2026-04-15 10:33 | 40.30398 | 21.27760 | 34592 ft | 456 kts | 130° |
| 2026-04-15 10:33 | 40.28541 | 21.31126 | 34353 ft | 456 kts | 131° |
| 2026-04-15 10:33 | 40.26681 | 21.34497 | 34100 ft | 456 kts | 131° |
| 2026-04-15 10:33 | 40.24822 | 21.37862 | 33824 ft | 456 kts | 131° |
| 2026-04-15 10:34 | 40.22961 | 21.41224 | 33552 ft | 456 kts | 131° |
| 2026-04-15 10:34 | 40.21099 | 21.44583 | 33278 ft | 456 kts | 130° |
| 2026-04-15 10:34 | 40.19262 | 21.47895 | 33003 ft | 455 kts | 130° |
| 2026-04-15 10:34 | 40.17404 | 21.51241 | 32747 ft | 455 kts | 130° |
| 2026-04-15 10:35 | 40.15541 | 21.54589 | 32490 ft | 455 kts | 130° |
| 2026-04-15 10:35 | 40.13677 | 21.57929 | 32242 ft | 455 kts | 130° |
| 2026-04-15 10:35 | 40.11814 | 21.61264 | 31991 ft | 454 kts | 130° |
| 2026-04-15 10:35 | 40.09949 | 21.64599 | 31735 ft | 454 kts | 130° |
| 2026-04-15 10:36 | 40.08087 | 21.67926 | 31480 ft | 454 kts | 130° |
| 2026-04-15 10:36 | 40.06223 | 21.71253 | 31213 ft | 454 kts | 130° |
| 2026-04-15 10:36 | 40.04383 | 21.74536 | 30967 ft | 454 kts | 130° |
| 2026-04-15 10:36 | 40.02520 | 21.77858 | 30721 ft | 454 kts | 130° |
| 2026-04-15 10:37 | 40.00657 | 21.81181 | 30465 ft | 456 kts | 130° |
| 2026-04-15 10:37 | 39.98773 | 21.84533 | 30222 ft | 459 kts | 130° |
| 2026-04-15 10:37 | 39.96878 | 21.87898 | 29941 ft | 461 kts | 130° |
| 2026-04-15 10:37 | 39.94981 | 21.91269 | 29656 ft | 462 kts | 130° |
| 2026-04-15 10:38 | 39.93080 | 21.94648 | 29375 ft | 463 kts | 130° |
| 2026-04-15 10:38 | 39.91198 | 21.97988 | 29110 ft | 464 kts | 130° |
| 2026-04-15 10:38 | 39.89285 | 22.01375 | 28833 ft | 465 kts | 130° |
| 2026-04-15 10:38 | 39.87368 | 22.04764 | 28561 ft | 465 kts | 130° |
| 2026-04-15 10:39 | 39.85449 | 22.08157 | 28294 ft | 466 kts | 130° |
| 2026-04-15 10:39 | 39.83528 | 22.11552 | 28026 ft | 466 kts | 130° |
| 2026-04-15 10:39 | 39.81599 | 22.14956 | 27744 ft | 469 kts | 130° |
| 2026-04-15 10:39 | 39.79655 | 22.18377 | 27483 ft | 472 kts | 131° |
| 2026-04-15 10:40 | 39.77700 | 22.21811 | 27225 ft | 474 kts | 131° |
| 2026-04-15 10:40 | 39.75762 | 22.25208 | 26972 ft | 474 kts | 131° |
| 2026-04-15 10:40 | 39.73798 | 22.28652 | 26718 ft | 475 kts | 130° |
| 2026-04-15 10:40 | 39.71831 | 22.32102 | 26466 ft | 475 kts | 130° |
| 2026-04-15 10:41 | 39.69861 | 22.35555 | 26216 ft | 476 kts | 130° |
| 2026-04-15 10:41 | 39.67885 | 22.39010 | 25969 ft | 476 kts | 130° |
| 2026-04-15 10:41 | 39.65909 | 22.42460 | 25725 ft | 477 kts | 130° |
| 2026-04-15 10:41 | 39.63928 | 22.45917 | 25477 ft | 477 kts | 130° |
| 2026-04-15 10:42 | 39.61938 | 22.49382 | 25237 ft | 480 kts | 130° |
| 2026-04-15 10:42 | 39.59968 | 22.52812 | 24997 ft | 481 kts | 130° |
| 2026-04-15 10:42 | 39.57967 | 22.56297 | 24759 ft | 482 kts | 130° |
| 2026-04-15 10:42 | 39.55962 | 22.59786 | 24526 ft | 483 kts | 130° |
| 2026-04-15 10:43 | 39.53953 | 22.63276 | 24296 ft | 483 kts | 130° |
| 2026-04-15 10:43 | 39.51944 | 22.66760 | 24048 ft | 482 kts | 130° |
| 2026-04-15 10:43 | 39.49939 | 22.70233 | 23830 ft | 481 kts | 130° |
| 2026-04-15 10:43 | 39.47939 | 22.73690 | 23573 ft | 480 kts | 130° |
| 2026-04-15 10:44 | 39.45940 | 22.77140 | 23295 ft | 478 kts | 130° |
| 2026-04-15 10:44 | 39.43947 | 22.80577 | 23021 ft | 477 kts | 130° |
| 2026-04-15 10:44 | 39.41986 | 22.83958 | 22754 ft | 475 kts | 130° |
| 2026-04-15 10:44 | 39.40010 | 22.87365 | 22492 ft | 473 kts | 130° |
| 2026-04-15 10:45 | 39.38038 | 22.90768 | 22222 ft | 471 kts | 130° |
| 2026-04-15 10:45 | 39.36074 | 22.94147 | 21949 ft | 470 kts | 130° |
| 2026-04-15 10:45 | 39.34111 | 22.97515 | 21685 ft | 468 kts | 130° |
| 2026-04-15 10:45 | 39.32159 | 23.00866 | 21439 ft | 466 kts | 129° |
| 2026-04-15 10:46 | 39.30217 | 23.04199 | 21025 ft | 462 kts | 129° |
| 2026-04-15 10:46 | 39.28288 | 23.07509 | 19949 ft | 461 kts | 129° |
| 2026-04-15 10:46 | 39.26365 | 23.10796 | 19040 ft | 457 kts | 129° |
| 2026-04-15 10:46 | 39.24486 | 23.14002 | 18262 ft | 450 kts | 129° |
| 2026-04-15 10:47 | 39.22598 | 23.17218 | 17320 ft | 447 kts | 129° |
| 2026-04-15 10:47 | 39.20739 | 23.20382 | 16448 ft | 441 kts | 129° |
| 2026-04-15 10:47 | 39.18895 | 23.23518 | 15758 ft | 435 kts | 129° |
| 2026-04-15 10:47 | 39.17073 | 23.26617 | 14847 ft | 434 kts | 129° |
| 2026-04-15 10:48 | 39.15274 | 23.29679 | 14165 ft | 426 kts | 129° |
| 2026-04-15 10:48 | 39.13481 | 23.32731 | 13246 ft | 422 kts | 129° |
| 2026-04-15 10:48 | 39.11754 | 23.35670 | 12545 ft | 402 kts | 129° |
| 2026-04-15 10:48 | 39.10127 | 23.38438 | 11871 ft | 384 kts | 129° |
| 2026-04-15 10:49 | 39.08561 | 23.41101 | 11474 ft | 360 kts | 130° |
| 2026-04-15 10:49 | 39.07113 | 23.43559 | 11386 ft | 330 kts | 130° |
| 2026-04-15 10:49 | 39.05780 | 23.45822 | 11285 ft | 305 kts | 130° |
| 2026-04-15 10:49 | 39.04536 | 23.47922 | 11168 ft | 285 kts | 130° |
| 2026-04-15 10:50 | 39.03374 | 23.49881 | 11045 ft | 266 kts | 131° |
| 2026-04-15 10:50 | 39.02294 | 23.51720 | 10930 ft | 250 kts | 128° |
| 2026-04-15 10:50 | 39.01547 | 23.53691 | 10823 ft | 245 kts | 110° |
| 2026-04-15 10:50 | 39.01284 | 23.55858 | 10713 ft | 248 kts | 92° |
| 2026-04-15 10:51 | 39.01543 | 23.58025 | 10617 ft | 251 kts | 75° |
| 2026-04-15 10:51 | 39.02296 | 23.60002 | 10530 ft | 242 kts | 57° |
| 2026-04-15 10:51 | 39.03413 | 23.61549 | 10386 ft | 232 kts | 40° |
| 2026-04-15 10:51 | 39.04763 | 23.62591 | 10278 ft | 221 kts | 23° |
| 2026-04-15 10:52 | 39.06206 | 23.63110 | 10173 ft | 210 kts | 7° |
| 2026-04-15 10:52 | 39.07646 | 23.63148 | 9917 ft | 208 kts | 352° |
| 2026-04-15 10:52 | 39.09117 | 23.62929 | 9379 ft | 220 kts | 351° |
| 2026-04-15 10:52 | 39.10685 | 23.62691 | 8773 ft | 233 kts | 352° |
| 2026-04-15 10:53 | 39.12333 | 23.62442 | 8155 ft | 243 kts | 352° |
| 2026-04-15 10:53 | 39.14008 | 23.62191 | 7669 ft | 241 kts | 353° |
| 2026-04-15 10:53 | 39.15644 | 23.61949 | 7182 ft | 239 kts | 353° |
| 2026-04-15 10:53 | 39.17284 | 23.61710 | 6721 ft | 236 kts | 353° |
| 2026-04-15 10:54 | 39.18907 | 23.61468 | 6296 ft | 231 kts | 353° |
| 2026-04-15 10:54 | 39.20429 | 23.61238 | 6213 ft | 210 kts | 354° |
| 2026-04-15 10:54 | 39.21851 | 23.61028 | 5969 ft | 202 kts | 354° |
| 2026-04-15 10:54 | 39.23226 | 23.60827 | 5710 ft | 196 kts | 354° |
| 2026-04-15 10:55 | 39.24558 | 23.60628 | 5469 ft | 190 kts | 354° |
| 2026-04-15 10:55 | 39.25853 | 23.60432 | 5228 ft | 184 kts | 355° |
| 2026-04-15 10:55 | 39.27081 | 23.60099 | 4974 ft | 178 kts | 336° |
| 2026-04-15 10:55 | 39.28048 | 23.59157 | 4722 ft | 172 kts | 308° |
| 2026-04-15 10:56 | 39.28549 | 23.57854 | 4516 ft | 160 kts | 281° |
| 2026-04-15 10:56 | 39.28579 | 23.56450 | 4388 ft | 155 kts | 256° |
| 2026-04-15 10:56 | 39.27256 | 23.54115 | 4108 ft | 146 kts | 205° |
| 2026-04-15 10:57 | 39.26302 | 23.54024 | 3988 ft | 142 kts | 162° |
| 2026-04-15 10:57 | 39.24434 | 23.54777 | 4006 ft | 141 kts | 160° |
| 2026-04-15 10:57 | 39.23493 | 23.55145 | 4005 ft | 141 kts | 161° |
| 2026-04-15 10:58 | 39.22555 | 23.55502 | 4009 ft | 141 kts | 162° |
| 2026-04-15 10:58 | 39.21608 | 23.55855 | 3883 ft | 143 kts | 162° |
| 2026-04-15 10:58 | 39.20663 | 23.56199 | 3706 ft | 137 kts | 162° |
| 2026-04-15 10:58 | 39.19772 | 23.56518 | 3757 ft | 131 kts | 162° |
| 2026-04-15 10:59 | 39.18893 | 23.56829 | 3818 ft | 131 kts | 162° |
| 2026-04-15 10:59 | 39.18031 | 23.57131 | 3866 ft | 130 kts | 162° |
| 2026-04-15 10:59 | 39.17158 | 23.57435 | 3925 ft | 130 kts | 162° |
| 2026-04-15 10:59 | 39.16284 | 23.57737 | 3971 ft | 130 kts | 162° |
| 2026-04-15 11:00 | 39.15407 | 23.58038 | 3987 ft | 130 kts | 162° |
| 2026-04-15 11:00 | 39.14513 | 23.58237 | 3998 ft | 131 kts | 173° |
| 2026-04-15 11:00 | 39.13597 | 23.58216 | 4000 ft | 132 kts | 183° |
| 2026-04-15 11:00 | 39.12686 | 23.57976 | 3908 ft | 134 kts | 194° |
| 2026-04-15 11:01 | 39.11822 | 23.57514 | 3794 ft | 135 kts | 204° |
| 2026-04-15 11:01 | 39.10987 | 23.56969 | 3665 ft | 135 kts | 202° |
| 2026-04-15 11:01 | 39.10161 | 23.56433 | 3550 ft | 135 kts | 203° |
| 2026-04-15 11:01 | 39.09324 | 23.55887 | 3428 ft | 135 kts | 204° |
| 2026-04-15 11:02 | 39.08483 | 23.55339 | 3303 ft | 136 kts | 205° |
| 2026-04-15 11:02 | 39.07642 | 23.54791 | 3175 ft | 135 kts | 205° |
| 2026-04-15 11:02 | 39.06801 | 23.54243 | 3046 ft | 135 kts | 206° |
| 2026-04-15 11:02 | 39.05961 | 23.53695 | 2920 ft | 136 kts | 205° |
| 2026-04-15 11:03 | 39.05119 | 23.53146 | 2796 ft | 136 kts | 206° |
| 2026-04-15 11:03 | 39.04277 | 23.52596 | 2675 ft | 136 kts | 206° |
| 2026-04-15 11:03 | 39.03448 | 23.52054 | 2543 ft | 135 kts | 207° |
| 2026-04-15 11:03 | 39.02657 | 23.51405 | 2410 ft | 136 kts | 224° |
| 2026-04-15 11:04 | 39.02136 | 23.50403 | 2285 ft | 136 kts | 249° |
| 2026-04-15 11:04 | 39.01975 | 23.49221 | 2160 ft | 134 kts | 273° |
| 2026-04-15 11:04 | 39.02197 | 23.48070 | 2034 ft | 133 kts | 298° |
| 2026-04-15 11:04 | 39.02755 | 23.47147 | 1906 ft | 131 kts | 321° |
| 2026-04-15 11:05 | 39.03542 | 23.46590 | 1779 ft | 129 kts | 345° |
| 2026-04-15 11:05 | 39.04423 | 23.46476 | 1696 ft | 127 kts | 6° |
| 2026-04-15 11:05 | 39.05292 | 23.46710 | 1643 ft | 127 kts | 13° |
| 2026-04-15 11:05 | 39.06143 | 23.46955 | 1617 ft | 127 kts | 13° |
| 2026-04-15 11:06 | 39.07008 | 23.47158 | 1655 ft | 127 kts | 5° |
| 2026-04-15 11:06 | 39.07892 | 23.47215 | 1818 ft | 128 kts | 2° |
| 2026-04-15 11:06 | 39.08790 | 23.47204 | 1817 ft | 129 kts | 0° |
| 2026-04-15 11:06 | 39.09687 | 23.47215 | 1679 ft | 128 kts | 2° |
| 2026-04-15 11:07 | 39.10578 | 23.47248 | 1452 ft | 128 kts | 6° |
| 2026-04-15 11:07 | 39.11449 | 23.47427 | 1156 ft | 126 kts | 13° |
| 2026-04-15 11:07 | 39.12287 | 23.47721 | 924 ft | 124 kts | 18° |
| 2026-04-15 11:07 | 39.13091 | 23.48121 | 818 ft | 123 kts | 22° |
| 2026-04-15 11:08 | 39.13867 | 23.48578 | 688 ft | 126 kts | 24° |
| 2026-04-15 11:08 | 39.14678 | 23.48975 | 590 ft | 124 kts | 16° |
| 2026-04-15 11:08 | 39.15506 | 23.49327 | 443 ft | 125 kts | 18° |
| 2026-04-15 11:08 | 39.16313 | 23.49733 | 258 ft | 124 kts | 20° |
| 2026-04-15 11:09 | 39.17122 | 23.50094 | 33 ft | 120 kts | 18° |
| 2026-04-15 11:09 | 39.17765 | 23.50374 | 41 ft | 61 kts | 19° |
| 2026-04-15 11:09 | 39.17925 | 23.50387 | 42 ft | 11 kts | 262° |
| 2026-04-15 11:09 | 39.17889 | 23.50309 | 43 ft | 8 kts | 224° |
| 2026-04-15 11:10 | 39.17840 | 23.50282 | 42 ft | 9 kts | 197° |
| 2026-04-15 11:10 | 39.17822 | 23.50228 | 45 ft | 5 kts | 282° |
| 2026-04-15 11:10 | 39.17824 | 23.50213 | 46 ft | 0 kts | 281° |
| 2026-04-15 11:11 | 39.17831 | 23.50187 | 49 ft | 0 kts | 289° |